createdAt,value
2023-04-18T00:00:29.920Z,11.54
2023-04-18T00:02:56.485Z,11.52
2023-04-18T00:05:23.169Z,10.71
2023-04-18T00:07:49.683Z,10.89
2023-04-18T00:10:16.427Z,11.29
2023-04-18T00:12:42.986Z,11.10
2023-04-18T00:15:09.858Z,11.28
2023-04-18T00:17:37.736Z,11.53
2023-04-18T00:20:04.434Z,11.46
2023-04-18T00:22:30.895Z,11.36
2023-04-18T00:24:57.296Z,11.39
2023-04-18T00:27:23.748Z,11.20
2023-04-18T00:29:50.286Z,11.22
2023-04-18T00:32:16.708Z,11.14
2023-04-18T00:34:44.527Z,10.96
2023-04-18T00:37:10.967Z,10.83
2023-04-18T00:39:37.520Z,10.76
2023-04-18T00:42:04.126Z,10.87
2023-04-18T00:44:30.899Z,11.02
2023-04-18T00:46:57.375Z,11.21
2023-04-18T00:49:24.094Z,10.73
2023-04-18T00:51:51.933Z,10.75
2023-04-18T00:54:18.417Z,11.05
2023-04-18T00:56:44.858Z,10.99
2023-04-18T00:59:11.348Z,11.01
2023-04-18T01:01:37.865Z,11.02
2023-04-18T01:04:04.438Z,10.93
2023-04-18T01:06:31.008Z,10.78
2023-04-18T01:08:58.814Z,10.86
2023-04-18T01:11:25.294Z,10.65
2023-04-18T01:13:58.499Z,10.27
2023-04-18T01:16:25.074Z,10.46
2023-04-18T01:18:51.594Z,10.64
2023-04-18T01:21:18.049Z,10.23
2023-04-18T01:23:44.481Z,10.46
2023-04-18T01:26:12.321Z,10.45
2023-04-18T01:28:38.768Z,10.61
2023-04-18T01:31:05.429Z,10.85
2023-04-18T01:33:31.911Z,10.94
2023-04-18T01:35:58.531Z,10.87
2023-04-18T01:38:24.930Z,10.98
2023-04-18T01:40:51.400Z,10.98
2023-04-18T01:43:19.247Z,10.91
2023-04-18T01:45:45.710Z,10.84
2023-04-18T01:48:12.152Z,10.87
2023-04-18T01:50:38.639Z,10.76
2023-04-18T01:53:05.082Z,10.73
2023-04-18T01:55:31.541Z,10.73
2023-04-18T01:57:57.970Z,10.77
2023-04-18T02:00:25.856Z,10.76
2023-04-18T02:02:52.434Z,10.85
2023-04-18T02:05:18.968Z,10.48
2023-04-18T02:07:45.406Z,10.44
2023-04-18T02:10:11.858Z,10.35
2023-04-18T02:12:38.280Z,10.48
2023-04-18T02:15:05.307Z,10.41
2023-04-18T02:17:33.209Z,10.25
2023-04-18T02:19:59.716Z,10.36
2023-04-18T02:22:26.253Z,10.43
2023-04-18T02:24:52.721Z,10.39
2023-04-18T02:27:19.197Z,9.80
2023-04-18T02:29:45.638Z,9.91
2023-04-18T02:32:12.261Z,10.25
2023-04-18T02:34:40.220Z,9.86
2023-04-18T02:37:06.664Z,9.98
2023-04-18T02:39:33.222Z,10.05
2023-04-18T02:41:59.754Z,9.83
2023-04-18T02:44:26.363Z,10.13
2023-04-18T02:46:52.825Z,10.05
2023-04-18T02:49:19.262Z,10.17
2023-04-18T02:51:47.127Z,9.59
2023-04-18T02:54:13.877Z,9.64
2023-04-18T02:56:40.590Z,9.73
2023-04-18T02:59:07.080Z,9.85
2023-04-18T03:01:33.613Z,9.71
2023-04-18T03:04:00.063Z,10.02
2023-04-18T03:06:26.511Z,10.32
2023-04-18T03:08:54.420Z,9.98
2023-04-18T03:11:20.880Z,10.11
2023-04-18T03:13:47.338Z,9.96
2023-04-18T03:16:13.804Z,9.77
2023-04-18T03:18:40.362Z,9.69
2023-04-18T03:21:06.771Z,9.94
2023-04-18T03:23:33.276Z,10.10
2023-04-18T03:26:01.102Z,9.66
2023-04-18T03:28:27.516Z,9.70
2023-04-18T03:30:53.990Z,9.76
2023-04-18T03:33:20.485Z,10.21
2023-04-18T03:35:47.093Z,9.56
2023-04-18T03:38:13.542Z,9.40
2023-04-18T03:40:40.120Z,9.94
2023-04-18T03:43:07.938Z,9.75
2023-04-18T03:45:34.439Z,10.00
2023-04-18T03:48:00.949Z,10.05
2023-04-18T03:50:27.557Z,10.11
2023-04-18T03:52:54.020Z,10.26
2023-04-18T03:55:20.631Z,10.30
2023-04-18T03:57:47.088Z,10.28
2023-04-18T04:00:15.435Z,10.35
2023-04-18T04:02:41.989Z,10.32
2023-04-18T04:05:08.703Z,9.64
2023-04-18T04:07:35.241Z,9.55
2023-04-18T04:10:01.728Z,9.72
2023-04-18T04:12:28.207Z,9.98
2023-04-18T04:14:54.667Z,10.00
2023-04-18T04:17:22.516Z,9.47
2023-04-18T04:19:49.188Z,9.44
2023-04-18T04:22:15.668Z,9.53
2023-04-18T04:24:42.122Z,9.73
2023-04-18T04:27:08.686Z,9.50
2023-04-18T04:29:35.131Z,9.90
2023-04-18T04:32:01.636Z,9.90
2023-04-18T04:34:29.533Z,9.55
2023-04-18T04:36:56.046Z,9.48
2023-04-18T04:39:22.530Z,9.60
2023-04-18T04:41:49.088Z,9.33
2023-04-18T04:44:15.806Z,9.50
2023-04-18T04:46:42.454Z,9.08
2023-04-18T04:49:08.882Z,9.10
2023-04-18T04:51:36.710Z,9.12
2023-04-18T04:54:03.220Z,9.28
2023-04-18T04:56:29.700Z,9.30
2023-04-18T04:58:56.297Z,9.36
2023-04-18T05:01:22.801Z,8.97
2023-04-18T05:03:49.531Z,9.33
2023-04-18T05:06:16.022Z,9.32
2023-04-18T05:08:43.929Z,9.29
2023-04-18T05:11:10.360Z,9.36
2023-04-18T05:13:36.814Z,9.40
2023-04-18T05:16:03.488Z,9.53
2023-04-18T05:18:29.981Z,9.48
2023-04-18T05:20:56.451Z,9.44
2023-04-18T05:23:22.877Z,9.03
2023-04-18T05:25:50.754Z,9.15
2023-04-18T05:28:17.184Z,9.43
2023-04-18T05:30:44.737Z,9.90
2023-04-18T05:33:11.192Z,9.66
2023-04-18T05:35:37.682Z,9.62
2023-04-18T05:38:04.192Z,9.52
2023-04-18T05:40:30.611Z,9.85
2023-04-18T05:42:58.435Z,10.04
2023-04-18T05:45:25.094Z,10.05
2023-04-18T05:47:51.960Z,10.18
2023-04-18T05:50:18.433Z,9.57
2023-04-18T05:52:44.900Z,9.60
2023-04-18T05:55:11.410Z,9.49
2023-04-18T05:57:37.808Z,9.87
2023-04-18T06:00:06.652Z,9.80
2023-04-18T06:02:33.211Z,9.70
2023-04-18T06:04:59.834Z,9.63
2023-04-18T06:07:26.442Z,9.82
2023-04-18T06:09:52.880Z,10.05
2023-04-18T06:12:19.296Z,10.10
2023-04-18T06:14:45.748Z,10.58
2023-04-18T06:17:13.830Z,9.97
2023-04-18T06:19:40.369Z,9.50
2023-04-18T06:22:06.827Z,9.46
2023-04-18T06:24:33.349Z,10.16
2023-04-18T06:26:59.828Z,10.80
2023-04-18T06:29:26.265Z,11.04
2023-04-18T06:31:52.752Z,11.01
2023-04-18T06:34:20.605Z,11.22
2023-04-18T06:36:47.066Z,10.51
2023-04-18T06:39:13.613Z,10.87
2023-04-18T06:41:40.185Z,10.78
2023-04-18T06:44:06.628Z,10.60
2023-04-18T06:46:33.106Z,10.14
2023-04-18T06:48:59.659Z,10.89
2023-04-18T06:51:27.622Z,11.59
2023-04-18T06:53:54.113Z,12.02
2023-04-18T06:56:20.769Z,12.13
2023-04-18T06:58:47.308Z,12.29
2023-04-18T07:01:13.788Z,12.35
2023-04-18T07:03:40.395Z,12.19
2023-04-18T07:06:06.957Z,11.78
2023-04-18T07:08:34.869Z,11.10
2023-04-18T07:11:01.301Z,11.47
2023-04-18T07:13:27.800Z,12.02
2023-04-18T07:15:54.273Z,12.72
2023-04-18T07:18:30.323Z,13.19
2023-04-18T07:21:03.612Z,13.11
2023-04-18T07:23:30.105Z,12.82
2023-04-18T07:25:57.927Z,12.87
2023-04-18T07:28:24.395Z,13.35
2023-04-18T07:30:50.907Z,12.54
2023-04-18T07:33:17.479Z,12.10
2023-04-18T07:35:43.980Z,12.61
2023-04-18T07:38:10.426Z,12.89
2023-04-18T07:40:36.928Z,13.12
2023-04-18T07:43:04.807Z,13.01
2023-04-18T07:45:31.231Z,13.26
2023-04-18T07:47:57.756Z,13.79
2023-04-18T07:50:24.263Z,13.63
2023-04-18T07:52:50.801Z,13.62
2023-04-18T07:55:17.311Z,14.05
2023-04-18T07:57:44.883Z,14.02
2023-04-18T08:00:14.781Z,14.11
2023-04-18T08:02:41.592Z,14.24
2023-04-18T08:05:08.769Z,14.22
2023-04-18T08:07:35.303Z,14.01
2023-04-18T08:10:01.797Z,14.22
2023-04-18T08:12:28.245Z,14.21
2023-04-18T08:14:54.732Z,14.68
2023-04-18T08:17:22.723Z,14.85
2023-04-18T08:19:49.203Z,13.80
2023-04-18T08:22:15.725Z,13.89
2023-04-18T08:24:54.060Z,13.71
2023-04-18T08:27:28.572Z,13.87
2023-04-18T08:29:55.037Z,14.21
2023-04-18T08:32:22.866Z,14.16
2023-04-18T08:34:49.411Z,13.75
2023-04-18T08:37:15.838Z,13.79
2023-04-18T08:39:42.647Z,13.41
2023-04-18T08:42:09.111Z,13.78
2023-04-18T08:44:35.491Z,13.42
2023-04-18T08:47:02.060Z,12.96
2023-04-18T08:49:29.924Z,12.68
2023-04-18T08:51:56.362Z,12.98
2023-04-18T08:54:22.913Z,13.10
2023-04-18T08:57:03.234Z,13.22
2023-04-18T08:59:29.698Z,13.59
2023-04-18T09:01:57.005Z,13.59
2023-04-18T09:04:35.236Z,13.29
2023-04-18T09:07:01.841Z,13.40
2023-04-18T09:09:28.445Z,13.70
2023-04-18T09:12:05.135Z,13.95
2023-04-18T09:14:31.601Z,13.99
2023-04-18T09:16:58.195Z,13.75
2023-04-18T09:19:30.549Z,14.05
2023-04-18T09:21:58.948Z,14.10
2023-04-18T09:24:25.529Z,14.07
2023-04-18T09:26:52.495Z,13.64
2023-04-18T09:29:19.224Z,13.72
2023-04-18T09:31:58.523Z,13.91
2023-04-18T09:34:25.110Z,13.89
2023-04-18T09:37:11.719Z,14.00
2023-04-18T09:39:39.487Z,14.58
2023-04-18T09:42:06.029Z,14.64
2023-04-18T09:44:32.456Z,14.76
2023-04-18T09:46:58.910Z,15.06
2023-04-18T09:49:25.355Z,15.15
2023-04-18T09:51:52.477Z,14.49
2023-04-18T09:54:20.291Z,14.48
2023-04-18T09:56:47.384Z,14.27
2023-04-18T09:59:14.817Z,14.40
2023-04-18T10:01:54.411Z,14.78
2023-04-18T10:04:21.023Z,14.96
2023-04-18T10:06:47.747Z,15.17
2023-04-18T10:09:14.550Z,15.14
2023-04-18T10:11:42.648Z,15.23
2023-04-18T10:14:10.251Z,15.23
2023-04-18T10:16:36.857Z,15.52
2023-04-18T10:19:18.202Z,15.48
2023-04-18T10:21:50.592Z,15.35
2023-04-18T10:24:34.766Z,15.96
2023-04-18T10:27:02.679Z,16.06
2023-04-18T10:29:43.952Z,16.27
2023-04-18T10:32:10.449Z,15.81
2023-04-18T10:34:36.927Z,15.91
2023-04-18T10:37:03.577Z,16.55
2023-04-18T10:39:29.993Z,16.88
2023-04-18T10:41:57.773Z,15.00
2023-04-18T10:44:25.588Z,14.86
2023-04-18T10:47:22.337Z,14.44
2023-04-18T10:49:58.383Z,15.57
2023-04-18T10:52:24.885Z,15.77
2023-04-18T10:54:51.994Z,16.40
2023-04-18T10:57:18.549Z,16.42
2023-04-18T10:59:48.169Z,16.30
2023-04-18T11:02:19.219Z,16.48
2023-04-18T11:04:48.694Z,16.79
2023-04-18T11:07:15.173Z,17.02
2023-04-18T11:09:42.308Z,17.06
2023-04-18T11:12:10.608Z,17.40
2023-04-18T11:14:40.280Z,16.82
2023-04-18T11:17:21.052Z,17.47
2023-04-18T11:19:47.700Z,17.66
2023-04-18T11:22:14.285Z,18.07
2023-04-18T11:24:40.727Z,17.05
2023-04-18T11:27:08.483Z,16.96
2023-04-18T11:29:34.921Z,16.94
2023-04-18T11:32:01.423Z,17.21
2023-04-18T11:34:30.103Z,16.65
2023-04-18T11:36:56.572Z,16.05
2023-04-18T11:39:23.240Z,15.94
2023-04-18T11:41:49.713Z,16.05
2023-04-18T11:44:16.203Z,16.12
2023-04-18T11:46:42.656Z,16.51
2023-04-18T11:49:23.710Z,16.29
2023-04-18T11:51:51.525Z,16.77
2023-04-18T11:54:36.491Z,16.65
2023-04-18T11:57:03.012Z,15.28
2023-04-18T11:59:29.542Z,15.98
2023-04-18T12:01:58.987Z,16.58
2023-04-18T12:04:25.675Z,16.76
2023-04-18T12:06:53.784Z,16.40
2023-04-18T12:09:20.920Z,16.04
2023-04-18T12:11:56.448Z,16.15
2023-04-18T12:14:22.901Z,16.33
2023-04-18T12:16:49.360Z,15.84
2023-04-18T12:19:15.796Z,16.09
2023-04-18T12:21:55.362Z,15.16
2023-04-18T12:24:22.342Z,15.55
2023-04-18T12:26:48.797Z,15.51
2023-04-18T12:29:15.351Z,15.42
2023-04-18T12:31:41.955Z,15.43
2023-04-18T12:34:08.413Z,15.69
2023-04-18T12:36:34.944Z,15.47
2023-04-18T12:39:02.760Z,16.07
2023-04-18T12:41:29.274Z,15.52
2023-04-18T12:43:55.700Z,15.30
2023-04-18T12:46:22.146Z,15.77
2023-04-18T12:48:48.626Z,15.98
2023-04-18T12:51:15.104Z,16.36
2023-04-18T12:53:41.541Z,15.80
2023-04-18T12:56:09.587Z,15.88
2023-04-18T12:58:36.034Z,16.41
2023-04-18T13:01:02.604Z,16.88
2023-04-18T13:03:29.227Z,16.60
2023-04-18T13:05:55.732Z,16.66
2023-04-18T13:08:22.172Z,16.05
2023-04-18T13:10:48.694Z,15.78
2023-04-18T13:13:16.609Z,15.87
2023-04-18T13:15:43.155Z,16.01
2023-04-18T13:18:09.631Z,15.83
2023-04-18T13:20:36.081Z,16.14
2023-04-18T13:23:02.630Z,15.86
2023-04-18T13:25:29.086Z,15.69
2023-04-18T13:27:55.615Z,15.77
2023-04-18T13:30:23.440Z,15.83
2023-04-18T13:32:50.106Z,15.75
2023-04-18T13:35:16.640Z,16.10
2023-04-18T13:37:43.112Z,15.80
2023-04-18T13:40:09.905Z,15.70
2023-04-18T13:42:36.762Z,15.56
2023-04-18T13:45:03.390Z,15.64
2023-04-18T13:47:31.306Z,15.64
2023-04-18T13:49:58.022Z,15.94
2023-04-18T13:52:24.609Z,15.74
2023-04-18T13:54:51.069Z,15.82
2023-04-18T13:57:17.507Z,16.01
2023-04-18T13:59:44.045Z,15.81
2023-04-18T14:02:10.755Z,15.58
2023-04-18T14:04:39.050Z,15.57
2023-04-18T14:07:05.571Z,15.16
2023-04-18T14:09:32.010Z,15.03
2023-04-18T14:11:58.474Z,15.49
2023-04-18T14:14:24.960Z,15.35
2023-04-18T14:16:54.134Z,15.09
2023-04-18T14:19:20.665Z,15.20
2023-04-18T14:21:52.995Z,15.12
2023-04-18T14:24:19.420Z,14.80
2023-04-18T14:26:48.546Z,14.44
2023-04-18T14:29:15.173Z,14.24
2023-04-18T14:31:42.068Z,14.54
2023-04-18T14:34:15.408Z,13.89
2023-04-18T14:36:41.852Z,14.40
2023-04-18T14:39:09.749Z,14.65
2023-04-18T14:41:36.218Z,14.78
2023-04-18T14:44:02.700Z,14.10
2023-04-18T14:46:29.158Z,14.60
2023-04-18T14:48:55.635Z,14.55
2023-04-18T14:51:22.665Z,14.81
2023-04-18T14:53:49.086Z,14.41
2023-04-18T14:56:17.034Z,14.45
2023-04-18T14:58:43.511Z,14.55
2023-04-18T15:01:09.931Z,14.55
2023-04-18T15:03:36.572Z,14.19
2023-04-18T15:06:03.221Z,14.47
2023-04-18T15:08:31.351Z,14.28
2023-04-18T15:10:59.153Z,13.76
2023-04-18T15:13:26.943Z,13.26
2023-04-18T15:15:53.879Z,13.03
2023-04-18T15:18:20.348Z,12.95
2023-04-18T15:20:46.773Z,13.17
2023-04-18T15:23:13.208Z,13.07
2023-04-18T15:25:39.669Z,12.71
2023-04-18T15:28:06.095Z,12.56
2023-04-18T15:30:33.996Z,12.88
2023-04-18T15:33:00.504Z,12.74
2023-04-18T15:35:27.078Z,12.45
2023-04-18T15:37:53.536Z,12.70
2023-04-18T15:40:20.040Z,12.81
2023-04-18T15:42:46.486Z,12.96
2023-04-18T15:45:12.971Z,13.28
2023-04-18T15:47:40.876Z,13.42
2023-04-18T15:50:07.986Z,13.57
2023-04-18T15:52:34.518Z,13.28
2023-04-18T15:55:00.997Z,13.16
2023-04-18T15:57:27.456Z,12.99
2023-04-18T15:59:53.924Z,13.11
2023-04-18T16:02:20.424Z,13.22
2023-04-18T16:04:48.408Z,13.15
2023-04-18T16:07:14.900Z,13.29
2023-04-18T16:09:41.333Z,13.02
2023-04-18T16:12:07.793Z,13.25
2023-04-18T16:14:34.227Z,13.44
2023-04-18T16:17:00.666Z,13.57
2023-04-18T16:19:27.128Z,12.87
2023-04-18T16:21:54.970Z,13.42
2023-04-18T16:24:21.393Z,13.70
2023-04-18T16:26:47.883Z,13.97
2023-04-18T16:29:14.373Z,13.26
2023-04-18T16:31:40.870Z,13.37
2023-04-18T16:34:07.321Z,13.37
2023-04-18T16:36:33.862Z,13.55
2023-04-18T16:39:01.691Z,13.60
2023-04-18T16:41:28.118Z,13.49
2023-04-18T16:43:54.582Z,13.50
2023-04-18T16:46:21.064Z,13.05
2023-04-18T16:48:47.510Z,13.23
2023-04-18T16:51:13.987Z,12.78
2023-04-18T16:53:40.451Z,13.04
2023-04-18T16:56:08.406Z,13.28
2023-04-18T16:58:34.832Z,13.04
2023-04-18T17:01:01.392Z,13.05
2023-04-18T17:03:27.931Z,13.08
2023-04-18T17:05:54.524Z,13.20
2023-04-18T17:08:20.979Z,13.40
2023-04-18T17:10:47.401Z,13.81
2023-04-18T17:13:15.219Z,13.81
2023-04-18T17:15:41.657Z,13.78
2023-04-18T17:18:08.135Z,13.90
2023-04-18T17:20:34.636Z,13.99
2023-04-18T17:23:01.060Z,14.11
2023-04-18T17:25:27.617Z,13.44
2023-04-18T17:27:54.053Z,13.45
2023-04-18T17:30:22.035Z,13.45
2023-04-18T17:32:48.559Z,13.31
2023-04-18T17:35:15.081Z,13.20
2023-04-18T17:37:41.568Z,13.69
2023-04-18T17:40:11.199Z,13.42
2023-04-18T17:42:37.649Z,13.61
2023-04-18T17:45:04.475Z,13.23
2023-04-18T17:47:32.370Z,13.23
2023-04-18T17:49:58.983Z,13.38
2023-04-18T17:52:25.614Z,13.18
2023-04-18T17:54:52.019Z,13.27
2023-04-18T17:57:18.538Z,13.20
2023-04-18T17:59:45.058Z,13.36
2023-04-18T18:02:11.668Z,13.35
2023-04-18T18:04:39.724Z,13.37
2023-04-18T18:07:06.306Z,13.30
2023-04-18T18:09:32.770Z,13.13
2023-04-18T18:11:59.290Z,13.40
2023-04-18T18:14:26.260Z,13.43
2023-04-18T18:16:52.748Z,13.40
2023-04-18T18:19:19.633Z,13.24
2023-04-18T18:21:47.430Z,13.05
2023-04-18T18:24:13.902Z,13.14
2023-04-18T18:26:40.330Z,13.32
2023-04-18T18:29:06.795Z,13.42
2023-04-18T18:31:33.271Z,13.48
2023-04-18T18:33:59.805Z,13.25
2023-04-18T18:36:26.229Z,13.59
2023-04-18T18:38:54.103Z,13.64
2023-04-18T18:41:20.897Z,13.30
2023-04-18T18:43:47.348Z,13.26
2023-04-18T18:46:14.198Z,13.55
2023-04-18T18:48:40.749Z,13.58
2023-04-18T18:51:07.216Z,13.49
2023-04-18T18:53:33.734Z,12.96
2023-04-18T18:56:01.823Z,13.37
2023-04-18T18:58:28.265Z,13.18
2023-04-18T19:00:54.712Z,13.36
2023-04-18T19:03:21.485Z,13.61
2023-04-18T19:05:48.176Z,13.53
2023-04-18T19:08:14.640Z,13.56
2023-04-18T19:10:41.123Z,13.45
2023-04-18T19:13:08.993Z,13.42
2023-04-18T19:15:35.493Z,13.64
2023-04-18T19:18:02.075Z,13.41
2023-04-18T19:20:29.297Z,12.88
2023-04-18T19:22:55.780Z,12.95
2023-04-18T19:25:22.213Z,12.82
2023-04-18T19:27:48.723Z,13.05
2023-04-18T19:30:16.588Z,13.08
2023-04-18T19:32:43.066Z,13.27
2023-04-18T19:35:09.625Z,13.15
2023-04-18T19:37:36.079Z,13.35
2023-04-18T19:40:02.534Z,13.53
2023-04-18T19:42:29.019Z,13.45
2023-04-18T19:44:55.487Z,13.48
2023-04-18T19:47:23.391Z,13.59
2023-04-18T19:49:49.882Z,13.76
2023-04-18T19:52:16.372Z,13.05
2023-04-18T19:54:42.786Z,12.76
2023-04-18T19:57:09.474Z,13.04
2023-04-18T19:59:35.927Z,13.15
2023-04-18T20:02:05.198Z,12.98
2023-04-18T20:04:34.255Z,12.94
2023-04-18T20:07:00.866Z,12.80
2023-04-18T20:09:27.302Z,12.06
2023-04-18T20:11:53.743Z,11.99
2023-04-18T20:14:20.225Z,12.05
2023-04-18T20:16:46.714Z,12.12
2023-04-18T20:19:14.002Z,12.20
2023-04-18T20:21:42.304Z,12.24
2023-04-18T20:24:08.771Z,12.56
2023-04-18T20:26:35.200Z,12.29
2023-04-18T20:29:01.619Z,12.24
2023-04-18T20:31:28.126Z,12.03
2023-04-18T20:33:54.561Z,12.03
2023-04-18T20:36:21.033Z,11.39
2023-04-18T20:38:48.854Z,11.47
2023-04-18T20:41:17.300Z,11.76
2023-04-18T20:43:43.875Z,11.58
2023-04-18T20:46:10.350Z,11.60
2023-04-18T20:48:36.831Z,11.76
2023-04-18T20:51:03.284Z,11.87
2023-04-18T20:53:29.779Z,11.60
2023-04-18T20:55:57.575Z,11.62
2023-04-18T20:58:24.058Z,11.63
2023-04-18T21:00:50.514Z,11.90
2023-04-18T21:03:17.232Z,11.69
2023-04-18T21:05:43.959Z,11.43
2023-04-18T21:08:10.394Z,11.02
2023-04-18T21:10:36.835Z,11.45
2023-04-18T21:13:04.636Z,11.75
2023-04-18T21:15:31.154Z,12.01
2023-04-18T21:17:57.663Z,11.83
2023-04-18T21:20:24.197Z,11.95
2023-04-18T21:22:50.662Z,12.12
2023-04-18T21:25:17.169Z,12.10
2023-04-18T21:27:43.620Z,12.11
2023-04-18T21:30:11.910Z,12.27
2023-04-18T21:32:38.429Z,12.33
2023-04-18T21:35:05.276Z,12.08
2023-04-18T21:37:31.716Z,11.89
2023-04-18T21:39:58.160Z,12.01
2023-04-18T21:42:24.708Z,11.86
2023-04-18T21:44:51.141Z,12.19
2023-04-18T21:47:18.968Z,12.29
2023-04-18T21:49:45.461Z,12.05
2023-04-18T21:52:11.884Z,12.03
2023-04-18T21:54:38.322Z,12.20
2023-04-18T21:57:04.805Z,12.55
2023-04-18T21:59:31.400Z,12.37
2023-04-18T22:01:57.937Z,11.88
2023-04-18T22:04:26.115Z,12.22
2023-04-18T22:06:52.974Z,11.74
2023-04-18T22:09:19.468Z,11.88
2023-04-18T22:11:45.914Z,12.10
2023-04-18T22:14:12.389Z,12.13
2023-04-18T22:16:39.065Z,12.19
2023-04-18T22:19:05.818Z,12.15
2023-04-18T22:21:33.637Z,12.08
2023-04-18T22:24:00.111Z,12.00
2023-04-18T22:26:26.582Z,11.82
2023-04-18T22:28:53.078Z,11.91
2023-04-18T22:31:19.559Z,11.93
2023-04-18T22:33:46.056Z,12.13
2023-04-18T22:36:12.487Z,12.23
2023-04-18T22:38:40.296Z,12.25
2023-04-18T22:41:06.731Z,12.28
2023-04-18T22:43:33.187Z,11.91
2023-04-18T22:45:59.681Z,11.91
2023-04-18T22:48:26.141Z,12.17
2023-04-18T22:50:52.619Z,12.16
2023-04-18T22:53:19.047Z,12.20
2023-04-18T22:55:46.932Z,12.08
2023-04-18T22:58:13.383Z,12.05
2023-04-18T23:00:39.891Z,12.10
2023-04-18T23:03:06.532Z,12.15
2023-04-18T23:05:33.061Z,11.71
2023-04-18T23:08:00.527Z,11.90
2023-04-18T23:10:27.189Z,11.61
2023-04-18T23:12:55.063Z,11.96
2023-04-18T23:15:21.541Z,11.66
2023-04-18T23:17:48.126Z,11.67
2023-04-18T23:20:14.694Z,11.37
2023-04-18T23:22:41.131Z,11.33
2023-04-18T23:25:07.745Z,11.44
2023-04-18T23:27:34.295Z,11.86
2023-04-18T23:30:02.076Z,12.05
2023-04-18T23:32:28.646Z,12.26
2023-04-18T23:34:55.096Z,11.94
2023-04-18T23:37:21.562Z,12.09
2023-04-18T23:39:48.134Z,11.92
2023-04-18T23:42:14.609Z,11.90
2023-04-18T23:44:41.081Z,12.07
2023-04-18T23:47:08.988Z,11.36
2023-04-18T23:49:35.468Z,11.76
2023-04-18T23:52:01.923Z,11.67
2023-04-18T23:54:28.517Z,11.56
2023-04-18T23:56:54.942Z,11.74
2023-04-18T23:59:21.385Z,11.57
